sensor_id;sensor_type;location;lat;lon;timestamp;pressure;altitude;pressure_sealevel;temperature;humidity
4024;BME280;2026;51.002;13.668;2023-05-07T00:02:45;99378.66;;;9.93;100.00
4024;BME280;2026;51.002;13.668;2023-05-07T00:07:49;99385.72;;;10.19;100.00
4024;BME280;2026;51.002;13.668;2023-05-07T00:12:54;99386.66;;;9.77;100.00
4024;BME280;2026;51.002;13.668;2023-05-07T00:17:57;99371.19;;;10.03;100.00
4024;BME280;2026;51.002;13.668;2023-05-07T00:23:02;99373.41;;;10.06;100.00
4024;BME280;2026;51.002;13.668;2023-05-07T00:28:08;99371.41;;;10.08;100.00
4024;BME280;2026;51.002;13.668;2023-05-07T00:33:11;99378.19;;;9.82;100.00
4024;BME280;2026;51.002;13.668;2023-05-07T00:38:15;99380.88;;;10.09;100.00
4024;BME280;2026;51.002;13.668;2023-05-07T00:43:18;99379.34;;;9.59;100.00
4024;BME280;2026;51.002;13.668;2023-05-07T00:48:22;99373.38;;;9.79;100.00
4024;BME280;2026;51.002;13.668;2023-05-07T00:53:27;99376.97;;;9.64;100.00
4024;BME280;2026;51.002;13.668;2023-05-07T00:58:30;99370.44;;;9.47;100.00
4024;BME280;2026;51.002;13.668;2023-05-07T01:03:33;99367.72;;;9.69;100.00
4024;BME280;2026;51.002;13.668;2023-05-07T01:08:38;99377.22;;;9.83;100.00
4024;BME280;2026;51.002;13.668;2023-05-07T01:13:43;99370.53;;;9.60;100.00
4024;BME280;2026;51.002;13.668;2023-05-07T01:18:46;99363.50;;;9.81;100.00
4024;BME280;2026;51.002;13.668;2023-05-07T01:23:52;99370.34;;;9.82;100.00
4024;BME280;2026;51.002;13.668;2023-05-07T01:28:57;99379.28;;;9.46;100.00
4024;BME280;2026;51.002;13.668;2023-05-07T01:34:00;99377.22;;;9.34;100.00
4024;BME280;2026;51.002;13.668;2023-05-07T01:39:06;99371.28;;;9.54;100.00
4024;BME280;2026;51.002;13.668;2023-05-07T01:44:10;99375.09;;;9.52;100.00
4024;BME280;2026;51.002;13.668;2023-05-07T01:49:15;99381.28;;;9.44;100.00
4024;BME280;2026;51.002;13.668;2023-05-07T01:54:25;99371.13;;;9.14;100.00
4024;BME280;2026;51.002;13.668;2023-05-07T01:59:30;99383.38;;;9.55;100.00
4024;BME280;2026;51.002;13.668;2023-05-07T02:04:33;99379.34;;;9.59;100.00
4024;BME280;2026;51.002;13.668;2023-05-07T02:09:38;99374.97;;;9.80;100.00
4024;BME280;2026;51.002;13.668;2023-05-07T02:14:41;99380.22;;;9.80;100.00
4024;BME280;2026;51.002;13.668;2023-05-07T02:19:45;99391.94;;;9.98;100.00
4024;BME280;2026;51.002;13.668;2023-05-07T02:24:50;99385.88;;;9.84;100.00
4024;BME280;2026;51.002;13.668;2023-05-07T02:29:53;99384.22;;;9.62;100.00
4024;BME280;2026;51.002;13.668;2023-05-07T02:34:56;99394.50;;;9.71;100.00
4024;BME280;2026;51.002;13.668;2023-05-07T02:40:00;99393.50;;;9.72;100.00
4024;BME280;2026;51.002;13.668;2023-05-07T02:45:06;99391.28;;;9.27;100.00
4024;BME280;2026;51.002;13.668;2023-05-07T02:50:10;99385.41;;;9.60;100.00
4024;BME280;2026;51.002;13.668;2023-05-07T02:55:15;99389.44;;;9.69;100.00
4024;BME280;2026;51.002;13.668;2023-05-07T03:00:20;99392.06;;;9.62;100.00
4024;BME280;2026;51.002;13.668;2023-05-07T03:05:30;99389.81;;;9.53;100.00
4024;BME280;2026;51.002;13.668;2023-05-07T03:10:35;99378.56;;;9.59;100.00
4024;BME280;2026;51.002;13.668;2023-05-07T03:15:38;99374.16;;;9.24;100.00
4024;BME280;2026;51.002;13.668;2023-05-07T03:20:41;99390.88;;;9.23;100.00
4024;BME280;2026;51.002;13.668;2023-05-07T03:25:45;99387.38;;;9.51;100.00
4024;BME280;2026;51.002;13.668;2023-05-07T03:30:49;99390.53;;;9.40;100.00
4024;BME280;2026;51.002;13.668;2023-05-07T03:35:52;99393.34;;;9.38;100.00
4024;BME280;2026;51.002;13.668;2023-05-07T03:40:59;99395.16;;;9.37;100.00
4024;BME280;2026;51.002;13.668;2023-05-07T03:46:03;99401.44;;;9.43;100.00
4024;BME280;2026;51.002;13.668;2023-05-07T03:51:06;99410.47;;;9.41;100.00
4024;BME280;2026;51.002;13.668;2023-05-07T03:56:10;99399.59;;;9.44;99.67
4024;BME280;2026;51.002;13.668;2023-05-07T04:01:15;99406.69;;;9.50;100.00
4024;BME280;2026;51.002;13.668;2023-05-07T04:06:18;99407.94;;;9.54;99.74
4024;BME280;2026;51.002;13.668;2023-05-07T04:11:24;99407.63;;;9.35;100.00
4024;BME280;2026;51.002;13.668;2023-05-07T04:16:28;99413.00;;;9.27;100.00
4024;BME280;2026;51.002;13.668;2023-05-07T04:21:32;99409.28;;;9.50;100.00
4024;BME280;2026;51.002;13.668;2023-05-07T04:26:36;99418.00;;;9.57;100.00
4024;BME280;2026;51.002;13.668;2023-05-07T04:31:40;99421.59;;;9.49;100.00
4024;BME280;2026;51.002;13.668;2023-05-07T04:36:46;99429.31;;;9.58;100.00
4024;BME280;2026;51.002;13.668;2023-05-07T04:41:51;99442.19;;;9.59;100.00
4024;BME280;2026;51.002;13.668;2023-05-07T04:46:54;99437.00;;;9.66;100.00
4024;BME280;2026;51.002;13.668;2023-05-07T04:51:57;99457.06;;;9.23;100.00
4024;BME280;2026;51.002;13.668;2023-05-07T04:57:03;99452.19;;;9.49;100.00
4024;BME280;2026;51.002;13.668;2023-05-07T05:02:06;99456.19;;;9.45;100.00
4024;BME280;2026;51.002;13.668;2023-05-07T05:07:09;99459.13;;;9.63;100.00
4024;BME280;2026;51.002;13.668;2023-05-07T05:12:14;99458.28;;;9.56;100.00
4024;BME280;2026;51.002;13.668;2023-05-07T05:17:17;99460.13;;;9.27;100.00
4024;BME280;2026;51.002;13.668;2023-05-07T05:22:20;99452.66;;;9.24;100.00
4024;BME280;2026;51.002;13.668;2023-05-07T05:27:25;99461.94;;;9.27;100.00
4024;BME280;2026;51.002;13.668;2023-05-07T05:32:28;99477.31;;;9.08;100.00
4024;BME280;2026;51.002;13.668;2023-05-07T05:37:32;99474.59;;;9.58;99.39
4024;BME280;2026;51.002;13.668;2023-05-07T05:42:39;99479.69;;;9.38;99.97
4024;BME280;2026;51.002;13.668;2023-05-07T05:47:43;99483.25;;;9.52;100.00
4024;BME280;2026;51.002;13.668;2023-05-07T05:52:46;99488.00;;;9.13;100.00
4024;BME280;2026;51.002;13.668;2023-05-07T05:57:51;99490.38;;;9.36;100.00
4024;BME280;2026;51.002;13.668;2023-05-07T06:02:55;99498.09;;;8.88;100.00
4024;BME280;2026;51.002;13.668;2023-05-07T06:07:59;99508.09;;;9.06;100.00
4024;BME280;2026;51.002;13.668;2023-05-07T06:13:08;99517.31;;;9.30;100.00
4024;BME280;2026;51.002;13.668;2023-05-07T06:18:11;99524.16;;;9.31;99.30
4024;BME280;2026;51.002;13.668;2023-05-07T06:23:15;99538.00;;;9.25;98.76
4024;BME280;2026;51.002;13.668;2023-05-07T06:28:20;99523.41;;;9.37;97.94
4024;BME280;2026;51.002;13.668;2023-05-07T06:33:23;99523.31;;;9.24;98.54
4024;BME280;2026;51.002;13.668;2023-05-07T06:38:26;99527.91;;;8.93;98.95
4024;BME280;2026;51.002;13.668;2023-05-07T06:43:31;99531.97;;;9.25;99.85
4024;BME280;2026;51.002;13.668;2023-05-07T06:49:06;99547.31;;;9.63;96.35
4024;BME280;2026;51.002;13.668;2023-05-07T06:54:09;99543.34;;;9.74;96.00
4024;BME280;2026;51.002;13.668;2023-05-07T06:59:15;99547.03;;;9.80;93.85
4024;BME280;2026;51.002;13.668;2023-05-07T07:04:18;99546.22;;;9.50;95.93
4024;BME280;2026;51.002;13.668;2023-05-07T07:09:27;99540.97;;;9.79;93.81
4024;BME280;2026;51.002;13.668;2023-05-07T07:14:33;99546.59;;;9.76;93.27
4024;BME280;2026;51.002;13.668;2023-05-07T07:19:36;99552.53;;;9.91;94.08
4024;BME280;2026;51.002;13.668;2023-05-07T07:24:40;99551.56;;;10.06;92.19
4024;BME280;2026;51.002;13.668;2023-05-07T07:29:46;99555.41;;;10.03;91.67
4024;BME280;2026;51.002;13.668;2023-05-07T07:34:49;99555.59;;;10.02;92.68
4024;BME280;2026;51.002;13.668;2023-05-07T07:39:52;99558.38;;;9.94;92.14
4024;BME280;2026;51.002;13.668;2023-05-07T07:44:58;99558.88;;;9.75;94.23
4024;BME280;2026;51.002;13.668;2023-05-07T07:50:05;99568.94;;;9.78;93.76
4024;BME280;2026;51.002;13.668;2023-05-07T07:55:09;99574.41;;;9.77;93.44
4024;BME280;2026;51.002;13.668;2023-05-07T08:00:15;99573.69;;;9.97;92.50
4024;BME280;2026;51.002;13.668;2023-05-07T08:05:18;99579.94;;;10.02;92.59
4024;BME280;2026;51.002;13.668;2023-05-07T08:10:23;99585.56;;;9.93;92.15
4024;BME280;2026;51.002;13.668;2023-05-07T08:15:34;99582.63;;;10.16;89.60
4024;BME280;2026;51.002;13.668;2023-05-07T08:20:37;99584.41;;;10.57;89.16
4024;BME280;2026;51.002;13.668;2023-05-07T08:25:44;99592.75;;;9.84;90.51
4024;BME280;2026;51.002;13.668;2023-05-07T08:30:49;99591.13;;;9.76;91.81
4024;BME280;2026;51.002;13.668;2023-05-07T08:35:53;99594.78;;;10.24;89.39
4024;BME280;2026;51.002;13.668;2023-05-07T08:40:56;99589.22;;;10.05;89.41
4024;BME280;2026;51.002;13.668;2023-05-07T08:46:01;99593.19;;;10.29;89.45
4024;BME280;2026;51.002;13.668;2023-05-07T08:51:12;99602.41;;;10.18;89.46
4024;BME280;2026;51.002;13.668;2023-05-07T08:56:16;99616.31;;;10.81;87.66
4024;BME280;2026;51.002;13.668;2023-05-07T09:01:25;99616.09;;;10.21;88.40
4024;BME280;2026;51.002;13.668;2023-05-07T09:06:29;99618.59;;;10.36;87.13
4024;BME280;2026;51.002;13.668;2023-05-07T09:11:33;99607.06;;;10.99;85.00
4024;BME280;2026;51.002;13.668;2023-05-07T09:16:38;99624.41;;;10.93;84.70
4024;BME280;2026;51.002;13.668;2023-05-07T09:21:41;99619.97;;;10.94;85.37
4024;BME280;2026;51.002;13.668;2023-05-07T09:26:46;99631.06;;;10.89;85.58
4024;BME280;2026;51.002;13.668;2023-05-07T09:31:51;99625.75;;;10.62;87.03
4024;BME280;2026;51.002;13.668;2023-05-07T09:36:54;99621.91;;;10.58;88.16
4024;BME280;2026;51.002;13.668;2023-05-07T09:41:58;99610.66;;;10.78;86.68
4024;BME280;2026;51.002;13.668;2023-05-07T09:47:10;99627.66;;;11.36;84.88
4024;BME280;2026;51.002;13.668;2023-05-07T09:52:19;99619.97;;;11.14;85.69
4024;BME280;2026;51.002;13.668;2023-05-07T09:57:27;99623.25;;;11.56;82.87
4024;BME280;2026;51.002;13.668;2023-05-07T10:02:37;99625.63;;;11.72;81.53
4024;BME280;2026;51.002;13.668;2023-05-07T10:07:48;99632.53;;;11.59;80.97
4024;BME280;2026;51.002;13.668;2023-05-07T10:12:52;99627.88;;;11.68;79.87
4024;BME280;2026;51.002;13.668;2023-05-07T10:18:06;99629.56;;;12.15;78.00
4024;BME280;2026;51.002;13.668;2023-05-07T10:23:13;99634.88;;;12.08;77.62
4024;BME280;2026;51.002;13.668;2023-05-07T10:28:22;99640.16;;;11.94;78.50
4024;BME280;2026;51.002;13.668;2023-05-07T10:33:30;99628.84;;;11.87;77.55
4024;BME280;2026;51.002;13.668;2023-05-07T10:38:36;99636.09;;;11.92;79.08
4024;BME280;2026;51.002;13.668;2023-05-07T10:43:41;99634.88;;;12.08;77.77
4024;BME280;2026;51.002;13.668;2023-05-07T10:49:11;99628.06;;;11.66;79.25
4024;BME280;2026;51.002;13.668;2023-05-07T10:54:28;99620.38;;;11.18;81.97
4024;BME280;2026;51.002;13.668;2023-05-07T10:59:39;99620.06;;;12.14;79.00
4024;BME280;2026;51.002;13.668;2023-05-07T11:05:20;99631.03;;;12.04;78.20
4024;BME280;2026;51.002;13.668;2023-05-07T11:10:48;99623.06;;;12.24;76.70
4024;BME280;2026;51.002;13.668;2023-05-07T11:16:00;99642.19;;;11.92;79.05
4024;BME280;2026;51.002;13.668;2023-05-07T11:21:13;99634.50;;;11.77;79.81
4024;BME280;2026;51.002;13.668;2023-05-07T11:26:21;99630.88;;;11.78;79.00
4024;BME280;2026;51.002;13.668;2023-05-07T11:31:26;99629.84;;;11.86;79.62
4024;BME280;2026;51.002;13.668;2023-05-07T11:36:33;99618.53;;;12.45;77.25
4024;BME280;2026;51.002;13.668;2023-05-07T11:41:39;99618.00;;;12.29;77.57
4024;BME280;2026;51.002;13.668;2023-05-07T11:46:44;99615.75;;;12.33;78.69
4024;BME280;2026;51.002;13.668;2023-05-07T11:51:49;99623.88;;;13.79;72.80
4024;BME280;2026;51.002;13.668;2023-05-07T11:56:52;99616.25;;;13.89;71.14
4024;BME280;2026;51.002;13.668;2023-05-07T12:01:56;99620.00;;;13.37;73.17
4024;BME280;2026;51.002;13.668;2023-05-07T12:07:02;99621.06;;;13.55;72.90
4024;BME280;2026;51.002;13.668;2023-05-07T12:12:05;99631.16;;;13.58;71.61
4024;BME280;2026;51.002;13.668;2023-05-07T12:17:09;99627.31;;;13.79;71.76
4024;BME280;2026;51.002;13.668;2023-05-07T12:22:14;99637.22;;;13.33;74.50
4024;BME280;2026;51.002;13.668;2023-05-07T12:27:17;99631.38;;;13.31;74.20
4024;BME280;2026;51.002;13.668;2023-05-07T12:32:21;99634.25;;;13.73;71.91
4024;BME280;2026;51.002;13.668;2023-05-07T12:37:26;99639.59;;;13.41;73.02
4024;BME280;2026;51.002;13.668;2023-05-07T12:42:33;99635.22;;;13.03;75.20
4024;BME280;2026;51.002;13.668;2023-05-07T12:47:38;99636.06;;;12.97;75.36
4024;BME280;2026;51.002;13.668;2023-05-07T12:52:43;99635.63;;;13.00;77.15
4024;BME280;2026;51.002;13.668;2023-05-07T12:57:48;99627.72;;;13.06;76.34
4024;BME280;2026;51.002;13.668;2023-05-07T13:02:54;99638.00;;;13.40;74.29
4024;BME280;2026;51.002;13.668;2023-05-07T13:07:58;99627.88;;;14.00;73.47
4024;BME280;2026;51.002;13.668;2023-05-07T13:13:01;99620.78;;;14.19;70.81
4024;BME280;2026;51.002;13.668;2023-05-07T13:18:04;99629.13;;;13.79;72.50
4024;BME280;2026;51.002;13.668;2023-05-07T13:23:09;99624.88;;;13.59;74.25
4024;BME280;2026;51.002;13.668;2023-05-07T13:28:12;99623.88;;;13.97;72.77
4024;BME280;2026;51.002;13.668;2023-05-07T13:33:15;99623.88;;;13.79;72.96
4024;BME280;2026;51.002;13.668;2023-05-07T13:38:19;99612.41;;;13.47;73.63
4024;BME280;2026;51.002;13.668;2023-05-07T13:43:25;99614.25;;;13.47;74.10
4024;BME280;2026;51.002;13.668;2023-05-07T13:48:28;99608.88;;;13.79;74.00
4024;BME280;2026;51.002;13.668;2023-05-07T13:53:32;99618.31;;;13.87;72.37
4024;BME280;2026;51.002;13.668;2023-05-07T13:58:35;99613.31;;;13.60;73.79
4024;BME280;2026;51.002;13.668;2023-05-07T14:03:57;99618.25;;;13.50;72.96
4024;BME280;2026;51.002;13.668;2023-05-07T14:09:02;99618.69;;;13.46;73.30
4024;BME280;2026;51.002;13.668;2023-05-07T14:14:05;99615.19;;;13.53;73.04
4024;BME280;2026;51.002;13.668;2023-05-07T14:19:08;99613.66;;;13.19;74.06
4024;BME280;2026;51.002;13.668;2023-05-07T14:24:13;99594.13;;;13.53;73.84
4024;BME280;2026;51.002;13.668;2023-05-07T14:29:31;99597.09;;;13.38;73.44
4024;BME280;2026;51.002;13.668;2023-05-07T14:34:34;99603.56;;;14.16;71.38
4024;BME280;2026;51.002;13.668;2023-05-07T14:39:39;99598.59;;;13.89;71.71
4024;BME280;2026;51.002;13.668;2023-05-07T14:44:42;99602.16;;;13.58;72.17
4024;BME280;2026;51.002;13.668;2023-05-07T14:49:46;99593.16;;;13.47;73.23
4024;BME280;2026;51.002;13.668;2023-05-07T14:54:51;99602.13;;;14.02;71.04
4024;BME280;2026;51.002;13.668;2023-05-07T14:59:54;99603.06;;;13.70;72.98
4024;BME280;2026;51.002;13.668;2023-05-07T15:04:57;99609.81;;;13.66;70.93
4024;BME280;2026;51.002;13.668;2023-05-07T15:10:01;99614.28;;;13.15;73.59
4024;BME280;2026;51.002;13.668;2023-05-07T15:15:05;99605.88;;;13.75;72.36
4024;BME280;2026;51.002;13.668;2023-05-07T15:20:08;99616.59;;;13.04;75.55
4024;BME280;2026;51.002;13.668;2023-05-07T15:25:13;99607.66;;;12.73;75.85
4024;BME280;2026;51.002;13.668;2023-05-07T15:30:18;99613.13;;;13.36;73.78
4024;BME280;2026;51.002;13.668;2023-05-07T15:35:21;99622.66;;;12.73;75.20
4024;BME280;2026;51.002;13.668;2023-05-07T15:40:26;99618.00;;;13.07;74.03
4024;BME280;2026;51.002;13.668;2023-05-07T15:45:30;99635.53;;;12.49;75.23
4024;BME280;2026;51.002;13.668;2023-05-07T15:50:33;99633.56;;;12.76;75.96
4024;BME280;2026;51.002;13.668;2023-05-07T15:55:37;99637.03;;;13.02;74.98
4024;BME280;2026;51.002;13.668;2023-05-07T16:00:41;99638.47;;;12.98;74.25
4024;BME280;2026;51.002;13.668;2023-05-07T16:05:44;99642.84;;;12.79;74.66
4024;BME280;2026;51.002;13.668;2023-05-07T16:10:49;99638.47;;;12.14;78.02
4024;BME280;2026;51.002;13.668;2023-05-07T16:15:54;99635.53;;;12.42;77.02
4024;BME280;2026;51.002;13.668;2023-05-07T16:20:58;99643.41;;;12.49;77.24
4024;BME280;2026;51.002;13.668;2023-05-07T16:26:03;99629.28;;;12.75;75.74
4024;BME280;2026;51.002;13.668;2023-05-07T16:31:07;99642.75;;;12.60;76.30
4024;BME280;2026;51.002;13.668;2023-05-07T16:36:10;99651.22;;;12.10;77.36
4024;BME280;2026;51.002;13.668;2023-05-07T16:41:15;99654.59;;;12.31;77.90
4024;BME280;2026;51.002;13.668;2023-05-07T16:46:18;99655.78;;;12.42;77.27
4024;BME280;2026;51.002;13.668;2023-05-07T16:51:21;99649.72;;;12.41;76.79
4024;BME280;2026;51.002;13.668;2023-05-07T16:56:26;99641.06;;;12.27;77.28
4024;BME280;2026;51.002;13.668;2023-05-07T17:01:29;99649.41;;;12.10;77.11
4024;BME280;2026;51.002;13.668;2023-05-07T17:06:33;99643.41;;;11.76;77.42
4024;BME280;2026;51.002;13.668;2023-05-07T17:11:38;99664.25;;;11.58;77.40
4024;BME280;2026;51.002;13.668;2023-05-07T17:16:41;99662.84;;;11.55;78.03
4024;BME280;2026;51.002;13.668;2023-05-07T17:21:44;99673.75;;;11.52;77.69
4024;BME280;2026;51.002;13.668;2023-05-07T17:26:48;99675.38;;;11.53;77.04
4024;BME280;2026;51.002;13.668;2023-05-07T17:31:51;99667.63;;;11.11;79.50
4024;BME280;2026;51.002;13.668;2023-05-07T17:36:54;99680.91;;;10.96;80.04
4024;BME280;2026;51.002;13.668;2023-05-07T17:41:59;99677.66;;;10.87;79.95
4024;BME280;2026;51.002;13.668;2023-05-07T17:47:02;99681.72;;;10.90;79.94
4024;BME280;2026;51.002;13.668;2023-05-07T17:52:05;99681.69;;;10.83;80.11
4024;BME280;2026;51.002;13.668;2023-05-07T17:57:10;99681.25;;;10.79;80.26
4024;BME280;2026;51.002;13.668;2023-05-07T18:02:13;99691.13;;;10.70;80.56
4024;BME280;2026;51.002;13.668;2023-05-07T18:07:16;99699.13;;;10.55;80.92
4024;BME280;2026;51.002;13.668;2023-05-07T18:12:20;99693.50;;;10.58;81.51
4024;BME280;2026;51.002;13.668;2023-05-07T18:17:25;99702.31;;;10.44;80.59
4024;BME280;2026;51.002;13.668;2023-05-07T18:22:28;99714.16;;;10.33;80.48
4024;BME280;2026;51.002;13.668;2023-05-07T18:27:33;99717.03;;;10.38;80.89
4024;BME280;2026;51.002;13.668;2023-05-07T18:32:36;99708.56;;;10.43;79.93
4024;BME280;2026;51.002;13.668;2023-05-07T18:37:39;99712.94;;;10.00;81.19
4024;BME280;2026;51.002;13.668;2023-05-07T18:42:43;99725.91;;;10.09;81.28
4024;BME280;2026;51.002;13.668;2023-05-07T18:47:46;99727.50;;;10.10;80.93
4024;BME280;2026;51.002;13.668;2023-05-07T18:52:49;99729.63;;;9.93;81.50
4024;BME280;2026;51.002;13.668;2023-05-07T18:57:53;99741.47;;;9.88;81.57
4024;BME280;2026;51.002;13.668;2023-05-07T19:02:56;99743.53;;;9.71;82.08
4024;BME280;2026;51.002;13.668;2023-05-07T19:07:59;99733.63;;;9.45;83.18
4024;BME280;2026;51.002;13.668;2023-05-07T19:13:03;99738.22;;;9.43;83.39
4024;BME280;2026;51.002;13.668;2023-05-07T19:18:06;99737.50;;;9.49;83.40
4024;BME280;2026;51.002;13.668;2023-05-07T19:23:09;99741.41;;;9.38;83.37
4024;BME280;2026;51.002;13.668;2023-05-07T19:28:14;99735.91;;;9.11;84.69
4024;BME280;2026;51.002;13.668;2023-05-07T19:33:17;99744.56;;;9.12;84.87
4024;BME280;2026;51.002;13.668;2023-05-07T19:38:20;99751.97;;;9.08;85.24
4024;BME280;2026;51.002;13.668;2023-05-07T19:43:25;99750.56;;;9.05;85.29
4024;BME280;2026;51.002;13.668;2023-05-07T19:48:28;99754.69;;;9.15;84.63
4024;BME280;2026;51.002;13.668;2023-05-07T19:53:31;99766.09;;;8.92;85.68
4024;BME280;2026;51.002;13.668;2023-05-07T19:58:35;99783.69;;;8.68;86.76
4024;BME280;2026;51.002;13.668;2023-05-07T20:03:38;99777.72;;;8.89;85.21
4024;BME280;2026;51.002;13.668;2023-05-07T20:08:41;99786.66;;;8.65;86.65
4024;BME280;2026;51.002;13.668;2023-05-07T20:13:46;99786.19;;;8.61;86.23
4024;BME280;2026;51.002;13.668;2023-05-07T20:18:49;99789.34;;;8.57;86.20
4024;BME280;2026;51.002;13.668;2023-05-07T20:23:52;99788.63;;;8.48;87.05
4024;BME280;2026;51.002;13.668;2023-05-07T20:28:56;99797.47;;;8.77;88.50
4024;BME280;2026;51.002;13.668;2023-05-07T20:33:59;99804.59;;;8.98;87.74
4024;BME280;2026;51.002;13.668;2023-05-07T20:39:02;99807.81;;;9.00;85.70
4024;BME280;2026;51.002;13.668;2023-05-07T20:44:07;99817.81;;;9.12;86.32
4024;BME280;2026;51.002;13.668;2023-05-07T20:49:10;99816.03;;;9.12;85.93
4024;BME280;2026;51.002;13.668;2023-05-07T20:54:14;99823.78;;;9.05;85.66
4024;BME280;2026;51.002;13.668;2023-05-07T20:59:18;99818.28;;;9.00;85.66
4024;BME280;2026;51.002;13.668;2023-05-07T21:04:21;99817.88;;;8.81;86.56
4024;BME280;2026;51.002;13.668;2023-05-07T21:09:25;99823.91;;;8.67;86.87
4024;BME280;2026;51.002;13.668;2023-05-07T21:14:31;99815.84;;;8.53;87.42
4024;BME280;2026;51.002;13.668;2023-05-07T21:19:33;99820.63;;;8.50;87.90
4024;BME280;2026;51.002;13.668;2023-05-07T21:24:36;99818.91;;;8.42;88.29
4024;BME280;2026;51.002;13.668;2023-05-07T21:29:43;99830.38;;;8.56;86.75
4024;BME280;2026;51.002;13.668;2023-05-07T21:34:46;99836.31;;;8.50;87.79
4024;BME280;2026;51.002;13.668;2023-05-07T21:39:49;99831.50;;;8.38;87.41
4024;BME280;2026;51.002;13.668;2023-05-07T21:44:53;99840.69;;;8.19;86.83
4024;BME280;2026;51.002;13.668;2023-05-07T21:49:56;99834.78;;;8.17;86.62
4024;BME280;2026;51.002;13.668;2023-05-07T21:54:59;99835.56;;;8.03;86.06
4024;BME280;2026;51.002;13.668;2023-05-07T22:00:05;99841.72;;;8.10;85.45
4024;BME280;2026;51.002;13.668;2023-05-07T22:05:08;99843.69;;;8.08;85.82
4024;BME280;2026;51.002;13.668;2023-05-07T22:10:11;99856.91;;;8.06;85.64
4024;BME280;2026;51.002;13.668;2023-05-07T22:15:16;99844.50;;;7.85;86.25
4024;BME280;2026;51.002;13.668;2023-05-07T22:20:19;99843.25;;;7.81;87.05
4024;BME280;2026;51.002;13.668;2023-05-07T22:25:23;99840.28;;;8.07;85.11
4024;BME280;2026;51.002;13.668;2023-05-07T22:30:28;99845.06;;;7.95;86.38
4024;BME280;2026;51.002;13.668;2023-05-07T22:35:31;99841.84;;;7.93;86.21
4024;BME280;2026;51.002;13.668;2023-05-07T22:40:34;99837.66;;;8.07;85.09
4024;BME280;2026;51.002;13.668;2023-05-07T22:45:38;99833.16;;;8.01;85.39
4024;BME280;2026;51.002;13.668;2023-05-07T22:50:41;99839.38;;;8.15;85.04
4024;BME280;2026;51.002;13.668;2023-05-07T22:55:44;99830.66;;;7.84;85.28
4024;BME280;2026;51.002;13.668;2023-05-07T23:00:48;99841.50;;;7.96;85.83
4024;BME280;2026;51.002;13.668;2023-05-07T23:05:51;99835.06;;;7.84;85.91
4024;BME280;2026;51.002;13.668;2023-05-07T23:10:54;99840.91;;;7.86;85.96
4024;BME280;2026;51.002;13.668;2023-05-07T23:15:58;99836.63;;;7.93;85.28
4024;BME280;2026;51.002;13.668;2023-05-07T23:21:01;99836.91;;;7.98;84.99
4024;BME280;2026;51.002;13.668;2023-05-07T23:26:04;99842.03;;;7.92;86.27
4024;BME280;2026;51.002;13.668;2023-05-07T23:31:09;99840.97;;;7.78;86.05
4024;BME280;2026;51.002;13.668;2023-05-07T23:36:13;99841.69;;;7.63;87.19
4024;BME280;2026;51.002;13.668;2023-05-07T23:41:16;99845.72;;;7.51;87.47
4024;BME280;2026;51.002;13.668;2023-05-07T23:46:20;99838.00;;;7.57;86.41
4024;BME280;2026;51.002;13.668;2023-05-07T23:51:23;99836.59;;;7.47;87.36
4024;BME280;2026;51.002;13.668;2023-05-07T23:56:26;99826.34;;;7.37;88.01
